sensor_id;sensor_type;location;lat;lon;timestamp;P1;durP1;ratioP1;P2;durP2;ratioP2
2998;SDS011;1509;51.964;7.628;2024-01-15T00:02:14;13.80;;;8.57;;
2998;SDS011;1509;51.964;7.628;2024-01-15T00:04:40;14.10;;;8.03;;
2998;SDS011;1509;51.964;7.628;2024-01-15T00:07:06;12.00;;;7.27;;
2998;SDS011;1509;51.964;7.628;2024-01-15T00:09:32;15.43;;;7.77;;
2998;SDS011;1509;51.964;7.628;2024-01-15T00:11:58;14.13;;;7.20;;
2998;SDS011;1509;51.964;7.628;2024-01-15T00:14:24;14.20;;;8.50;;
2998;SDS011;1509;51.964;7.628;2024-01-15T00:16:52;11.43;;;7.53;;
2998;SDS011;1509;51.964;7.628;2024-01-15T00:19:20;15.63;;;7.80;;
2998;SDS011;1509;51.964;7.628;2024-01-15T00:21:49;16.63;;;7.10;;
2998;SDS011;1509;51.964;7.628;2024-01-15T00:24:15;18.03;;;7.73;;
2998;SDS011;1509;51.964;7.628;2024-01-15T00:26:41;13.83;;;7.37;;
2998;SDS011;1509;51.964;7.628;2024-01-15T00:29:07;16.63;;;6.87;;
2998;SDS011;1509;51.964;7.628;2024-01-15T00:31:33;13.33;;;8.03;;
2998;SDS011;1509;51.964;7.628;2024-01-15T00:33:59;8.80;;;5.93;;
2998;SDS011;1509;51.964;7.628;2024-01-15T00:36:24;8.10;;;6.10;;
2998;SDS011;1509;51.964;7.628;2024-01-15T00:38:50;12.20;;;6.40;;
2998;SDS011;1509;51.964;7.628;2024-01-15T00:41:16;12.60;;;7.37;;
2998;SDS011;1509;51.964;7.628;2024-01-15T00:43:44;21.40;;;7.10;;
2998;SDS011;1509;51.964;7.628;2024-01-15T00:46:10;10.73;;;6.37;;
2998;SDS011;1509;51.964;7.628;2024-01-15T00:48:36;14.50;;;6.97;;
2998;SDS011;1509;51.964;7.628;2024-01-15T00:51:02;13.17;;;6.03;;
2998;SDS011;1509;51.964;7.628;2024-01-15T00:53:29;14.93;;;8.60;;
2998;SDS011;1509;51.964;7.628;2024-01-15T00:55:54;14.53;;;8.00;;
2998;SDS011;1509;51.964;7.628;2024-01-15T00:58:20;12.27;;;8.03;;
2998;SDS011;1509;51.964;7.628;2024-01-15T01:00:46;16.80;;;8.13;;
2998;SDS011;1509;51.964;7.628;2024-01-15T01:03:11;15.80;;;7.43;;
2998;SDS011;1509;51.964;7.628;2024-01-15T01:05:37;18.37;;;8.00;;
2998;SDS011;1509;51.964;7.628;2024-01-15T01:08:03;15.83;;;8.40;;
2998;SDS011;1509;51.964;7.628;2024-01-15T01:10:28;12.10;;;8.33;;
2998;SDS011;1509;51.964;7.628;2024-01-15T01:12:54;11.13;;;7.53;;
2998;SDS011;1509;51.964;7.628;2024-01-15T01:15:20;14.73;;;9.50;;
2998;SDS011;1509;51.964;7.628;2024-01-15T01:17:46;12.50;;;8.10;;
2998;SDS011;1509;51.964;7.628;2024-01-15T01:20:11;15.07;;;8.13;;
2998;SDS011;1509;51.964;7.628;2024-01-15T01:22:37;15.83;;;8.90;;
2998;SDS011;1509;51.964;7.628;2024-01-15T01:25:04;15.07;;;8.30;;
2998;SDS011;1509;51.964;7.628;2024-01-15T01:27:30;14.10;;;9.00;;
2998;SDS011;1509;51.964;7.628;2024-01-15T01:29:55;17.50;;;8.43;;
2998;SDS011;1509;51.964;7.628;2024-01-15T01:32:21;15.30;;;7.80;;
2998;SDS011;1509;51.964;7.628;2024-01-15T01:34:46;18.77;;;8.80;;
2998;SDS011;1509;51.964;7.628;2024-01-15T01:37:12;15.00;;;9.10;;
2998;SDS011;1509;51.964;7.628;2024-01-15T01:39:41;15.03;;;9.10;;
2998;SDS011;1509;51.964;7.628;2024-01-15T01:42:08;16.77;;;9.20;;
2998;SDS011;1509;51.964;7.628;2024-01-15T01:44:34;12.60;;;8.80;;
2998;SDS011;1509;51.964;7.628;2024-01-15T01:46:59;21.63;;;8.43;;
2998;SDS011;1509;51.964;7.628;2024-01-15T01:49:26;14.10;;;10.03;;
2998;SDS011;1509;51.964;7.628;2024-01-15T01:51:52;13.53;;;8.27;;
2998;SDS011;1509;51.964;7.628;2024-01-15T01:54:20;12.93;;;7.70;;
2998;SDS011;1509;51.964;7.628;2024-01-15T01:56:46;13.27;;;7.57;;
2998;SDS011;1509;51.964;7.628;2024-01-15T01:59:13;20.10;;;8.10;;
2998;SDS011;1509;51.964;7.628;2024-01-15T02:01:39;12.73;;;8.17;;
2998;SDS011;1509;51.964;7.628;2024-01-15T02:04:06;19.97;;;8.07;;
2998;SDS011;1509;51.964;7.628;2024-01-15T02:06:31;13.13;;;7.43;;
2998;SDS011;1509;51.964;7.628;2024-01-15T02:08:59;14.30;;;8.23;;
2998;SDS011;1509;51.964;7.628;2024-01-15T02:11:25;15.80;;;6.40;;
2998;SDS011;1509;51.964;7.628;2024-01-15T02:13:51;13.97;;;7.73;;
2998;SDS011;1509;51.964;7.628;2024-01-15T02:16:17;17.00;;;7.10;;
2998;SDS011;1509;51.964;7.628;2024-01-15T02:18:43;12.53;;;7.10;;
2998;SDS011;1509;51.964;7.628;2024-01-15T02:21:10;13.07;;;8.07;;
2998;SDS011;1509;51.964;7.628;2024-01-15T02:23:36;18.07;;;7.40;;
2998;SDS011;1509;51.964;7.628;2024-01-15T02:26:02;11.83;;;6.30;;
2998;SDS011;1509;51.964;7.628;2024-01-15T02:28:29;16.70;;;8.10;;
2998;SDS011;1509;51.964;7.628;2024-01-15T02:30:54;15.17;;;8.13;;
2998;SDS011;1509;51.964;7.628;2024-01-15T02:33:20;13.90;;;6.77;;
2998;SDS011;1509;51.964;7.628;2024-01-15T02:35:46;12.80;;;7.80;;
2998;SDS011;1509;51.964;7.628;2024-01-15T02:38:15;13.47;;;7.07;;
2998;SDS011;1509;51.964;7.628;2024-01-15T02:40:44;12.70;;;7.80;;
2998;SDS011;1509;51.964;7.628;2024-01-15T02:43:10;14.23;;;7.90;;
2998;SDS011;1509;51.964;7.628;2024-01-15T02:45:35;10.47;;;6.87;;
2998;SDS011;1509;51.964;7.628;2024-01-15T02:48:01;15.13;;;8.07;;
2998;SDS011;1509;51.964;7.628;2024-01-15T02:50:27;11.57;;;6.23;;
2998;SDS011;1509;51.964;7.628;2024-01-15T02:52:52;16.67;;;9.10;;
2998;SDS011;1509;51.964;7.628;2024-01-15T02:55:18;15.03;;;7.97;;
2998;SDS011;1509;51.964;7.628;2024-01-15T02:57:44;13.97;;;7.67;;
2998;SDS011;1509;51.964;7.628;2024-01-15T03:00:09;13.23;;;7.93;;
2998;SDS011;1509;51.964;7.628;2024-01-15T03:02:36;16.70;;;8.80;;
2998;SDS011;1509;51.964;7.628;2024-01-15T03:05:06;13.00;;;8.13;;
2998;SDS011;1509;51.964;7.628;2024-01-15T03:07:32;13.37;;;7.43;;
2998;SDS011;1509;51.964;7.628;2024-01-15T03:09:58;18.67;;;9.30;;
2998;SDS011;1509;51.964;7.628;2024-01-15T03:12:24;16.20;;;7.80;;
2998;SDS011;1509;51.964;7.628;2024-01-15T03:14:50;13.90;;;8.20;;
2998;SDS011;1509;51.964;7.628;2024-01-15T03:17:15;11.90;;;7.73;;
2998;SDS011;1509;51.964;7.628;2024-01-15T03:19:41;11.23;;;7.50;;
2998;SDS011;1509;51.964;7.628;2024-01-15T03:22:06;15.10;;;7.50;;
2998;SDS011;1509;51.964;7.628;2024-01-15T03:24:33;18.23;;;7.27;;
2998;SDS011;1509;51.964;7.628;2024-01-15T03:26:59;18.20;;;7.00;;
2998;SDS011;1509;51.964;7.628;2024-01-15T03:29:25;14.10;;;7.37;;
2998;SDS011;1509;51.964;7.628;2024-01-15T03:31:51;13.53;;;7.77;;
2998;SDS011;1509;51.964;7.628;2024-01-15T03:34:17;12.23;;;7.00;;
2998;SDS011;1509;51.964;7.628;2024-01-15T03:36:43;16.00;;;7.60;;
2998;SDS011;1509;51.964;7.628;2024-01-15T03:39:08;15.63;;;6.63;;
2998;SDS011;1509;51.964;7.628;2024-01-15T03:41:34;21.33;;;8.00;;
2998;SDS011;1509;51.964;7.628;2024-01-15T03:44:00;8.83;;;6.00;;
2998;SDS011;1509;51.964;7.628;2024-01-15T03:46:26;10.83;;;6.00;;
2998;SDS011;1509;51.964;7.628;2024-01-15T03:48:52;14.23;;;6.40;;
2998;SDS011;1509;51.964;7.628;2024-01-15T03:51:17;14.17;;;7.20;;
2998;SDS011;1509;51.964;7.628;2024-01-15T03:53:43;8.37;;;5.23;;
2998;SDS011;1509;51.964;7.628;2024-01-15T03:56:09;10.03;;;6.23;;
2998;SDS011;1509;51.964;7.628;2024-01-15T03:58:34;12.30;;;6.20;;
2998;SDS011;1509;51.964;7.628;2024-01-15T04:01:00;10.17;;;6.77;;
2998;SDS011;1509;51.964;7.628;2024-01-15T04:03:25;12.60;;;5.70;;
2998;SDS011;1509;51.964;7.628;2024-01-15T04:05:51;13.23;;;5.17;;
2998;SDS011;1509;51.964;7.628;2024-01-15T04:08:17;11.47;;;6.47;;
2998;SDS011;1509;51.964;7.628;2024-01-15T04:10:42;10.27;;;7.20;;
2998;SDS011;1509;51.964;7.628;2024-01-15T04:13:08;12.50;;;6.17;;
2998;SDS011;1509;51.964;7.628;2024-01-15T04:15:33;14.67;;;6.43;;
2998;SDS011;1509;51.964;7.628;2024-01-15T04:18:00;8.20;;;4.73;;
2998;SDS011;1509;51.964;7.628;2024-01-15T04:20:26;11.23;;;6.43;;
2998;SDS011;1509;51.964;7.628;2024-01-15T04:22:51;9.57;;;5.37;;
2998;SDS011;1509;51.964;7.628;2024-01-15T04:25:17;7.90;;;5.60;;
2998;SDS011;1509;51.964;7.628;2024-01-15T04:27:43;11.87;;;6.93;;
2998;SDS011;1509;51.964;7.628;2024-01-15T04:30:08;10.23;;;6.10;;
2998;SDS011;1509;51.964;7.628;2024-01-15T04:32:34;8.50;;;5.50;;
2998;SDS011;1509;51.964;7.628;2024-01-15T04:35:01;9.77;;;5.47;;
2998;SDS011;1509;51.964;7.628;2024-01-15T04:37:26;14.13;;;6.50;;
2998;SDS011;1509;51.964;7.628;2024-01-15T04:39:52;11.33;;;5.53;;
2998;SDS011;1509;51.964;7.628;2024-01-15T04:42:20;9.33;;;7.07;;
2998;SDS011;1509;51.964;7.628;2024-01-15T04:44:46;17.13;;;6.30;;
2998;SDS011;1509;51.964;7.628;2024-01-15T04:47:12;12.33;;;4.80;;
2998;SDS011;1509;51.964;7.628;2024-01-15T04:49:37;7.13;;;4.77;;
2998;SDS011;1509;51.964;7.628;2024-01-15T04:52:03;6.83;;;4.83;;
2998;SDS011;1509;51.964;7.628;2024-01-15T04:54:28;12.13;;;6.10;;
2998;SDS011;1509;51.964;7.628;2024-01-15T04:56:54;7.30;;;5.10;;
2998;SDS011;1509;51.964;7.628;2024-01-15T04:59:20;13.00;;;4.63;;
2998;SDS011;1509;51.964;7.628;2024-01-15T05:01:46;8.70;;;5.10;;
2998;SDS011;1509;51.964;7.628;2024-01-15T05:04:12;10.37;;;4.40;;
2998;SDS011;1509;51.964;7.628;2024-01-15T05:06:38;10.87;;;5.87;;
2998;SDS011;1509;51.964;7.628;2024-01-15T05:09:03;15.07;;;6.60;;
2998;SDS011;1509;51.964;7.628;2024-01-15T05:11:29;7.17;;;5.43;;
2998;SDS011;1509;51.964;7.628;2024-01-15T05:13:55;10.27;;;6.60;;
2998;SDS011;1509;51.964;7.628;2024-01-15T05:16:20;13.20;;;5.20;;
2998;SDS011;1509;51.964;7.628;2024-01-15T05:18:49;12.50;;;6.10;;
2998;SDS011;1509;51.964;7.628;2024-01-15T05:21:14;11.97;;;6.40;;
2998;SDS011;1509;51.964;7.628;2024-01-15T05:23:40;12.67;;;5.90;;
2998;SDS011;1509;51.964;7.628;2024-01-15T05:26:05;10.30;;;6.23;;
2998;SDS011;1509;51.964;7.628;2024-01-15T05:28:31;9.37;;;5.97;;
2998;SDS011;1509;51.964;7.628;2024-01-15T05:30:57;15.37;;;5.80;;
2998;SDS011;1509;51.964;7.628;2024-01-15T05:33:23;15.33;;;5.60;;
2998;SDS011;1509;51.964;7.628;2024-01-15T05:35:48;8.80;;;5.73;;
2998;SDS011;1509;51.964;7.628;2024-01-15T05:38:15;13.50;;;4.47;;
2998;SDS011;1509;51.964;7.628;2024-01-15T05:40:41;9.97;;;5.53;;
2998;SDS011;1509;51.964;7.628;2024-01-15T05:43:07;8.57;;;4.60;;
2998;SDS011;1509;51.964;7.628;2024-01-15T05:45:35;10.03;;;5.03;;
2998;SDS011;1509;51.964;7.628;2024-01-15T05:48:03;8.30;;;4.57;;
2998;SDS011;1509;51.964;7.628;2024-01-15T05:50:29;10.13;;;4.50;;
2998;SDS011;1509;51.964;7.628;2024-01-15T05:52:54;11.33;;;7.20;;
2998;SDS011;1509;51.964;7.628;2024-01-15T05:55:20;9.27;;;5.37;;
2998;SDS011;1509;51.964;7.628;2024-01-15T05:57:45;10.40;;;5.47;;
2998;SDS011;1509;51.964;7.628;2024-01-15T06:00:11;13.40;;;6.43;;
2998;SDS011;1509;51.964;7.628;2024-01-15T06:02:37;11.80;;;5.43;;
2998;SDS011;1509;51.964;7.628;2024-01-15T06:05:04;10.33;;;4.87;;
2998;SDS011;1509;51.964;7.628;2024-01-15T06:07:34;10.73;;;6.13;;
2998;SDS011;1509;51.964;7.628;2024-01-15T06:10:01;9.50;;;6.13;;
2998;SDS011;1509;51.964;7.628;2024-01-15T06:12:27;10.00;;;5.50;;
2998;SDS011;1509;51.964;7.628;2024-01-15T06:14:53;14.07;;;6.40;;
2998;SDS011;1509;51.964;7.628;2024-01-15T06:17:18;9.83;;;6.30;;
2998;SDS011;1509;51.964;7.628;2024-01-15T06:19:47;8.43;;;5.13;;
2998;SDS011;1509;51.964;7.628;2024-01-15T06:22:12;8.67;;;5.63;;
2998;SDS011;1509;51.964;7.628;2024-01-15T06:24:38;15.20;;;5.00;;
2998;SDS011;1509;51.964;7.628;2024-01-15T06:27:04;7.40;;;6.17;;
2998;SDS011;1509;51.964;7.628;2024-01-15T06:29:29;6.30;;;4.40;;
2998;SDS011;1509;51.964;7.628;2024-01-15T06:31:55;10.30;;;5.00;;
2998;SDS011;1509;51.964;7.628;2024-01-15T06:34:20;8.80;;;5.20;;
2998;SDS011;1509;51.964;7.628;2024-01-15T06:36:46;10.50;;;5.03;;
2998;SDS011;1509;51.964;7.628;2024-01-15T06:39:12;11.10;;;5.30;;
2998;SDS011;1509;51.964;7.628;2024-01-15T06:41:37;14.20;;;5.50;;
2998;SDS011;1509;51.964;7.628;2024-01-15T06:44:08;8.23;;;5.30;;
2998;SDS011;1509;51.964;7.628;2024-01-15T06:46:41;14.10;;;5.50;;
2998;SDS011;1509;51.964;7.628;2024-01-15T06:49:08;12.70;;;5.00;;
2998;SDS011;1509;51.964;7.628;2024-01-15T06:51:34;12.77;;;5.00;;
2998;SDS011;1509;51.964;7.628;2024-01-15T06:54:00;8.57;;;5.20;;
2998;SDS011;1509;51.964;7.628;2024-01-15T06:56:26;7.47;;;4.90;;
2998;SDS011;1509;51.964;7.628;2024-01-15T06:58:51;6.57;;;5.07;;
2998;SDS011;1509;51.964;7.628;2024-01-15T07:01:17;9.23;;;5.70;;
2998;SDS011;1509;51.964;7.628;2024-01-15T07:03:42;5.90;;;5.10;;
2998;SDS011;1509;51.964;7.628;2024-01-15T07:06:08;5.70;;;4.30;;
2998;SDS011;1509;51.964;7.628;2024-01-15T07:08:34;8.20;;;4.87;;
2998;SDS011;1509;51.964;7.628;2024-01-15T07:10:59;9.63;;;5.60;;
2998;SDS011;1509;51.964;7.628;2024-01-15T07:13:28;4.87;;;4.47;;
2998;SDS011;1509;51.964;7.628;2024-01-15T07:15:53;7.13;;;4.30;;
2998;SDS011;1509;51.964;7.628;2024-01-15T07:18:19;5.40;;;4.03;;
2998;SDS011;1509;51.964;7.628;2024-01-15T07:20:45;5.90;;;4.20;;
2998;SDS011;1509;51.964;7.628;2024-01-15T07:23:10;7.07;;;5.00;;
2998;SDS011;1509;51.964;7.628;2024-01-15T07:25:37;5.43;;;4.63;;
2998;SDS011;1509;51.964;7.628;2024-01-15T07:28:02;7.87;;;4.90;;
2998;SDS011;1509;51.964;7.628;2024-01-15T07:30:31;5.17;;;3.77;;
2998;SDS011;1509;51.964;7.628;2024-01-15T07:32:57;6.33;;;4.87;;
2998;SDS011;1509;51.964;7.628;2024-01-15T07:35:22;3.53;;;3.20;;
2998;SDS011;1509;51.964;7.628;2024-01-15T07:37:48;6.17;;;4.50;;
2998;SDS011;1509;51.964;7.628;2024-01-15T07:40:14;6.23;;;4.43;;
2998;SDS011;1509;51.964;7.628;2024-01-15T07:42:40;7.97;;;5.10;;
2998;SDS011;1509;51.964;7.628;2024-01-15T07:45:07;9.20;;;5.37;;
2998;SDS011;1509;51.964;7.628;2024-01-15T07:47:33;8.83;;;5.27;;
2998;SDS011;1509;51.964;7.628;2024-01-15T07:49:59;9.03;;;5.50;;
2998;SDS011;1509;51.964;7.628;2024-01-15T07:52:25;11.13;;;6.37;;
2998;SDS011;1509;51.964;7.628;2024-01-15T07:54:50;12.10;;;7.60;;
2998;SDS011;1509;51.964;7.628;2024-01-15T07:57:16;9.03;;;5.67;;
2998;SDS011;1509;51.964;7.628;2024-01-15T07:59:44;8.50;;;5.00;;
2998;SDS011;1509;51.964;7.628;2024-01-15T08:02:10;7.70;;;6.30;;
2998;SDS011;1509;51.964;7.628;2024-01-15T08:04:39;10.20;;;6.03;;
2998;SDS011;1509;51.964;7.628;2024-01-15T08:07:04;10.00;;;6.77;;
2998;SDS011;1509;51.964;7.628;2024-01-15T08:09:32;15.07;;;6.07;;
2998;SDS011;1509;51.964;7.628;2024-01-15T08:11:57;7.40;;;5.50;;
2998;SDS011;1509;51.964;7.628;2024-01-15T08:14:23;12.73;;;6.43;;
2998;SDS011;1509;51.964;7.628;2024-01-15T08:16:49;8.70;;;5.60;;
2998;SDS011;1509;51.964;7.628;2024-01-15T08:19:15;11.50;;;5.60;;
2998;SDS011;1509;51.964;7.628;2024-01-15T08:21:41;8.67;;;5.30;;
2998;SDS011;1509;51.964;7.628;2024-01-15T08:24:08;9.10;;;6.23;;
2998;SDS011;1509;51.964;7.628;2024-01-15T08:26:34;13.17;;;6.20;;
2998;SDS011;1509;51.964;7.628;2024-01-15T08:29:02;7.63;;;5.23;;
2998;SDS011;1509;51.964;7.628;2024-01-15T08:31:28;8.30;;;5.20;;
2998;SDS011;1509;51.964;7.628;2024-01-15T08:34:00;8.60;;;5.17;;
2998;SDS011;1509;51.964;7.628;2024-01-15T08:36:26;8.63;;;5.20;;
2998;SDS011;1509;51.964;7.628;2024-01-15T08:38:54;8.30;;;5.00;;
2998;SDS011;1509;51.964;7.628;2024-01-15T08:41:35;8.83;;;5.10;;
2998;SDS011;1509;51.964;7.628;2024-01-15T08:44:01;7.30;;;4.40;;
2998;SDS011;1509;51.964;7.628;2024-01-15T08:46:27;8.57;;;5.43;;
2998;SDS011;1509;51.964;7.628;2024-01-15T08:48:53;12.53;;;4.73;;
2998;SDS011;1509;51.964;7.628;2024-01-15T08:51:19;18.20;;;6.53;;
2998;SDS011;1509;51.964;7.628;2024-01-15T08:53:44;11.70;;;5.07;;
2998;SDS011;1509;51.964;7.628;2024-01-15T08:56:10;10.20;;;4.50;;
2998;SDS011;1509;51.964;7.628;2024-01-15T08:58:36;14.37;;;7.43;;
2998;SDS011;1509;51.964;7.628;2024-01-15T09:01:01;15.43;;;5.93;;
2998;SDS011;1509;51.964;7.628;2024-01-15T09:03:29;5.00;;;4.00;;
2998;SDS011;1509;51.964;7.628;2024-01-15T09:05:55;8.50;;;4.50;;
2998;SDS011;1509;51.964;7.628;2024-01-15T09:08:21;8.57;;;5.10;;
2998;SDS011;1509;51.964;7.628;2024-01-15T09:10:46;12.50;;;4.20;;
2998;SDS011;1509;51.964;7.628;2024-01-15T09:13:12;4.70;;;3.70;;
2998;SDS011;1509;51.964;7.628;2024-01-15T09:15:38;6.87;;;4.27;;
2998;SDS011;1509;51.964;7.628;2024-01-15T09:18:03;9.50;;;5.33;;
2998;SDS011;1509;51.964;7.628;2024-01-15T09:20:30;5.70;;;4.70;;
2998;SDS011;1509;51.964;7.628;2024-01-15T09:22:56;12.23;;;4.40;;
2998;SDS011;1509;51.964;7.628;2024-01-15T09:25:24;7.30;;;4.37;;
2998;SDS011;1509;51.964;7.628;2024-01-15T09:27:53;4.77;;;3.60;;
2998;SDS011;1509;51.964;7.628;2024-01-15T09:30:18;6.50;;;3.77;;
2998;SDS011;1509;51.964;7.628;2024-01-15T09:32:44;8.70;;;3.73;;
2998;SDS011;1509;51.964;7.628;2024-01-15T09:35:10;8.00;;;3.87;;
2998;SDS011;1509;51.964;7.628;2024-01-15T09:37:36;5.00;;;3.83;;
2998;SDS011;1509;51.964;7.628;2024-01-15T09:40:02;10.23;;;4.43;;
2998;SDS011;1509;51.964;7.628;2024-01-15T09:42:31;10.90;;;4.30;;
2998;SDS011;1509;51.964;7.628;2024-01-15T09:44:57;5.63;;;3.67;;
2998;SDS011;1509;51.964;7.628;2024-01-15T09:47:23;5.77;;;4.20;;
2998;SDS011;1509;51.964;7.628;2024-01-15T09:49:50;4.97;;;3.63;;
2998;SDS011;1509;51.964;7.628;2024-01-15T09:52:15;7.27;;;4.63;;
2998;SDS011;1509;51.964;7.628;2024-01-15T09:54:46;5.53;;;3.83;;
2998;SDS011;1509;51.964;7.628;2024-01-15T09:57:12;4.87;;;3.73;;
2998;SDS011;1509;51.964;7.628;2024-01-15T09:59:38;8.80;;;3.97;;
2998;SDS011;1509;51.964;7.628;2024-01-15T10:02:07;38.97;;;6.20;;
2998;SDS011;1509;51.964;7.628;2024-01-15T10:04:33;9.87;;;3.97;;
2998;SDS011;1509;51.964;7.628;2024-01-15T10:07:02;7.00;;;3.77;;
2998;SDS011;1509;51.964;7.628;2024-01-15T10:09:29;15.30;;;4.33;;
2998;SDS011;1509;51.964;7.628;2024-01-15T10:11:55;4.87;;;3.37;;
2998;SDS011;1509;51.964;7.628;2024-01-15T10:14:21;9.03;;;3.67;;
2998;SDS011;1509;51.964;7.628;2024-01-15T10:16:47;7.50;;;4.23;;
2998;SDS011;1509;51.964;7.628;2024-01-15T10:19:12;5.37;;;4.20;;
2998;SDS011;1509;51.964;7.628;2024-01-15T10:21:41;10.10;;;4.50;;
2998;SDS011;1509;51.964;7.628;2024-01-15T10:24:10;11.93;;;5.20;;
2998;SDS011;1509;51.964;7.628;2024-01-15T10:26:37;5.80;;;3.90;;
2998;SDS011;1509;51.964;7.628;2024-01-15T10:29:02;12.57;;;4.80;;
2998;SDS011;1509;51.964;7.628;2024-01-15T10:31:28;6.13;;;3.97;;
2998;SDS011;1509;51.964;7.628;2024-01-15T10:33:54;6.37;;;3.50;;
2998;SDS011;1509;51.964;7.628;2024-01-15T10:36:34;9.40;;;3.60;;
2998;SDS011;1509;51.964;7.628;2024-01-15T10:39:00;7.83;;;3.67;;
2998;SDS011;1509;51.964;7.628;2024-01-15T10:41:27;4.87;;;3.10;;
2998;SDS011;1509;51.964;7.628;2024-01-15T10:43:54;3.37;;;2.53;;
2998;SDS011;1509;51.964;7.628;2024-01-15T10:46:19;4.23;;;3.23;;
2998;SDS011;1509;51.964;7.628;2024-01-15T10:48:45;6.73;;;3.10;;
2998;SDS011;1509;51.964;7.628;2024-01-15T10:51:11;5.60;;;3.17;;
2998;SDS011;1509;51.964;7.628;2024-01-15T10:53:38;5.10;;;2.60;;
2998;SDS011;1509;51.964;7.628;2024-01-15T10:56:07;3.93;;;2.40;;
2998;SDS011;1509;51.964;7.628;2024-01-15T10:58:36;3.53;;;2.40;;
2998;SDS011;1509;51.964;7.628;2024-01-15T11:01:04;7.87;;;2.60;;
2998;SDS011;1509;51.964;7.628;2024-01-15T11:03:30;5.07;;;3.20;;
2998;SDS011;1509;51.964;7.628;2024-01-15T11:05:56;6.30;;;3.00;;
2998;SDS011;1509;51.964;7.628;2024-01-15T11:08:21;4.00;;;2.67;;
2998;SDS011;1509;51.964;7.628;2024-01-15T11:10:50;2.03;;;1.83;;
2998;SDS011;1509;51.964;7.628;2024-01-15T11:13:20;3.53;;;2.50;;
2998;SDS011;1509;51.964;7.628;2024-01-15T11:15:57;3.47;;;2.87;;
2998;SDS011;1509;51.964;7.628;2024-01-15T11:18:29;4.43;;;2.20;;
2998;SDS011;1509;51.964;7.628;2024-01-15T11:23:46;5.97;;;2.67;;
2998;SDS011;1509;51.964;7.628;2024-01-15T11:28:58;5.07;;;2.13;;
2998;SDS011;1509;51.964;7.628;2024-01-15T11:34:09;5.80;;;2.03;;
2998;SDS011;1509;51.964;7.628;2024-01-15T11:41:56;3.97;;;2.70;;
2998;SDS011;1509;51.964;7.628;2024-01-15T11:44:22;4.13;;;2.00;;
2998;SDS011;1509;51.964;7.628;2024-01-15T11:47:32;3.20;;;1.90;;
2998;SDS011;1509;51.964;7.628;2024-01-15T12:00:12;4.30;;;2.50;;
2998;SDS011;1509;51.964;7.628;2024-01-15T12:02:41;5.10;;;2.60;;
2998;SDS011;1509;51.964;7.628;2024-01-15T12:05:09;4.53;;;1.87;;
2998;SDS011;1509;51.964;7.628;2024-01-15T12:07:38;6.80;;;2.20;;
2998;SDS011;1509;51.964;7.628;2024-01-15T12:10:09;4.43;;;2.10;;
2998;SDS011;1509;51.964;7.628;2024-01-15T12:12:51;4.30;;;2.33;;
2998;SDS011;1509;51.964;7.628;2024-01-15T12:15:24;6.60;;;2.90;;
2998;SDS011;1509;51.964;7.628;2024-01-15T12:17:50;4.80;;;2.27;;
2998;SDS011;1509;51.964;7.628;2024-01-15T12:20:16;3.20;;;2.20;;
2998;SDS011;1509;51.964;7.628;2024-01-15T12:22:43;9.77;;;2.40;;
2998;SDS011;1509;51.964;7.628;2024-01-15T12:25:09;7.47;;;2.53;;
2998;SDS011;1509;51.964;7.628;2024-01-15T12:27:35;2.23;;;1.60;;
2998;SDS011;1509;51.964;7.628;2024-01-15T12:30:01;4.57;;;2.50;;
2998;SDS011;1509;51.964;7.628;2024-01-15T12:32:27;3.60;;;2.40;;
2998;SDS011;1509;51.964;7.628;2024-01-15T12:34:54;9.10;;;2.90;;
2998;SDS011;1509;51.964;7.628;2024-01-15T12:37:19;4.37;;;2.00;;
2998;SDS011;1509;51.964;7.628;2024-01-15T12:39:46;4.70;;;2.63;;
2998;SDS011;1509;51.964;7.628;2024-01-15T12:42:14;4.13;;;2.23;;
2998;SDS011;1509;51.964;7.628;2024-01-15T12:44:41;10.23;;;3.20;;
2998;SDS011;1509;51.964;7.628;2024-01-15T12:47:07;3.47;;;2.37;;
2998;SDS011;1509;51.964;7.628;2024-01-15T12:49:33;6.97;;;2.53;;
2998;SDS011;1509;51.964;7.628;2024-01-15T12:52:02;4.57;;;2.20;;
2998;SDS011;1509;51.964;7.628;2024-01-15T12:54:28;3.23;;;1.80;;
2998;SDS011;1509;51.964;7.628;2024-01-15T12:56:54;4.90;;;2.33;;
2998;SDS011;1509;51.964;7.628;2024-01-15T12:59:19;3.30;;;1.93;;
2998;SDS011;1509;51.964;7.628;2024-01-15T13:01:45;3.90;;;2.07;;
2998;SDS011;1509;51.964;7.628;2024-01-15T13:04:12;7.10;;;2.10;;
2998;SDS011;1509;51.964;7.628;2024-01-15T13:06:46;2.33;;;1.83;;
2998;SDS011;1509;51.964;7.628;2024-01-15T13:09:12;3.90;;;1.83;;
2998;SDS011;1509;51.964;7.628;2024-01-15T13:11:37;3.03;;;2.10;;
2998;SDS011;1509;51.964;7.628;2024-01-15T13:14:03;3.57;;;1.93;;
2998;SDS011;1509;51.964;7.628;2024-01-15T13:16:29;3.47;;;1.77;;
2998;SDS011;1509;51.964;7.628;2024-01-15T13:18:55;5.43;;;2.30;;
2998;SDS011;1509;51.964;7.628;2024-01-15T13:21:23;2.27;;;2.07;;
2998;SDS011;1509;51.964;7.628;2024-01-15T13:23:49;2.40;;;2.00;;
2998;SDS011;1509;51.964;7.628;2024-01-15T13:26:15;3.10;;;1.83;;
2998;SDS011;1509;51.964;7.628;2024-01-15T13:28:43;4.50;;;1.80;;
2998;SDS011;1509;51.964;7.628;2024-01-15T13:31:09;2.63;;;1.90;;
2998;SDS011;1509;51.964;7.628;2024-01-15T13:33:35;2.90;;;2.10;;
2998;SDS011;1509;51.964;7.628;2024-01-15T13:36:00;5.00;;;2.07;;
2998;SDS011;1509;51.964;7.628;2024-01-15T13:38:27;8.67;;;2.23;;
2998;SDS011;1509;51.964;7.628;2024-01-15T13:40:56;1.70;;;1.33;;
2998;SDS011;1509;51.964;7.628;2024-01-15T13:43:22;3.13;;;1.60;;
2998;SDS011;1509;51.964;7.628;2024-01-15T13:45:47;2.90;;;2.20;;
2998;SDS011;1509;51.964;7.628;2024-01-15T13:48:15;3.80;;;1.47;;
2998;SDS011;1509;51.964;7.628;2024-01-15T13:50:41;3.10;;;2.30;;
2998;SDS011;1509;51.964;7.628;2024-01-15T13:53:07;1.90;;;1.80;;
2998;SDS011;1509;51.964;7.628;2024-01-15T13:55:39;2.40;;;1.67;;
2998;SDS011;1509;51.964;7.628;2024-01-15T13:58:05;3.10;;;1.57;;
2998;SDS011;1509;51.964;7.628;2024-01-15T14:00:31;3.07;;;1.60;;
2998;SDS011;1509;51.964;7.628;2024-01-15T14:02:57;3.97;;;2.30;;
2998;SDS011;1509;51.964;7.628;2024-01-15T14:05:23;1.47;;;1.37;;
2998;SDS011;1509;51.964;7.628;2024-01-15T14:07:49;6.73;;;2.13;;
2998;SDS011;1509;51.964;7.628;2024-01-15T14:10:14;5.23;;;1.63;;
2998;SDS011;1509;51.964;7.628;2024-01-15T14:12:40;7.23;;;2.93;;
2998;SDS011;1509;51.964;7.628;2024-01-15T14:15:06;3.53;;;1.43;;
2998;SDS011;1509;51.964;7.628;2024-01-15T14:17:33;2.07;;;1.20;;
2998;SDS011;1509;51.964;7.628;2024-01-15T14:19:58;5.40;;;1.50;;
2998;SDS011;1509;51.964;7.628;2024-01-15T14:22:24;1.67;;;1.40;;
2998;SDS011;1509;51.964;7.628;2024-01-15T14:24:50;2.13;;;1.10;;
2998;SDS011;1509;51.964;7.628;2024-01-15T14:27:16;2.53;;;2.10;;
2998;SDS011;1509;51.964;7.628;2024-01-15T14:29:42;4.70;;;1.73;;
2998;SDS011;1509;51.964;7.628;2024-01-15T14:32:07;4.57;;;1.10;;
2998;SDS011;1509;51.964;7.628;2024-01-15T14:34:33;1.73;;;1.30;;
2998;SDS011;1509;51.964;7.628;2024-01-15T14:37:01;2.37;;;1.37;;
2998;SDS011;1509;51.964;7.628;2024-01-15T14:39:26;2.23;;;1.23;;
2998;SDS011;1509;51.964;7.628;2024-01-15T14:41:52;5.53;;;1.10;;
2998;SDS011;1509;51.964;7.628;2024-01-15T14:44:18;1.20;;;1.10;;
2998;SDS011;1509;51.964;7.628;2024-01-15T14:46:44;13.37;;;1.60;;
2998;SDS011;1509;51.964;7.628;2024-01-15T14:49:10;2.50;;;1.43;;
2998;SDS011;1509;51.964;7.628;2024-01-15T14:51:36;3.10;;;1.60;;
2998;SDS011;1509;51.964;7.628;2024-01-15T14:54:02;3.10;;;1.97;;
2998;SDS011;1509;51.964;7.628;2024-01-15T14:56:27;2.00;;;1.77;;
2998;SDS011;1509;51.964;7.628;2024-01-15T14:58:54;3.37;;;2.40;;
2998;SDS011;1509;51.964;7.628;2024-01-15T15:01:19;6.07;;;3.43;;
2998;SDS011;1509;51.964;7.628;2024-01-15T15:03:45;5.93;;;2.20;;
2998;SDS011;1509;51.964;7.628;2024-01-15T15:06:11;3.70;;;1.73;;
2998;SDS011;1509;51.964;7.628;2024-01-15T15:08:37;3.03;;;2.00;;
2998;SDS011;1509;51.964;7.628;2024-01-15T15:11:03;2.43;;;2.00;;
2998;SDS011;1509;51.964;7.628;2024-01-15T15:13:29;4.43;;;2.20;;
2998;SDS011;1509;51.964;7.628;2024-01-15T15:15:55;2.67;;;2.07;;
2998;SDS011;1509;51.964;7.628;2024-01-15T15:18:21;6.00;;;1.87;;
2998;SDS011;1509;51.964;7.628;2024-01-15T15:20:52;3.50;;;1.63;;
2998;SDS011;1509;51.964;7.628;2024-01-15T15:23:18;5.33;;;2.00;;
2998;SDS011;1509;51.964;7.628;2024-01-15T15:25:44;4.20;;;1.87;;
2998;SDS011;1509;51.964;7.628;2024-01-15T15:28:09;6.23;;;2.47;;
2998;SDS011;1509;51.964;7.628;2024-01-15T15:30:36;2.53;;;1.27;;